sensor_id;sensor_type;location;lat;lon;timestamp;P1;durP1;ratioP1;P2;durP2;ratioP2
22287;SDS011;11312;51.464;6.968;2022-07-18T00:01:54;2.97;;;1.58;;
22287;SDS011;11312;51.464;6.968;2022-07-18T00:04:21;0.80;;;0.80;;
22287;SDS011;11312;51.464;6.968;2022-07-18T00:06:46;0.80;;;0.80;;
22287;SDS011;11312;51.464;6.968;2022-07-18T00:09:12;2.00;;;1.50;;
22287;SDS011;11312;51.464;6.968;2022-07-18T00:11:38;0.93;;;0.90;;
22287;SDS011;11312;51.464;6.968;2022-07-18T00:14:04;3.60;;;1.05;;
22287;SDS011;11312;51.464;6.968;2022-07-18T00:16:30;1.17;;;0.95;;
22287;SDS011;11312;51.464;6.968;2022-07-18T00:18:56;0.70;;;0.70;;
22287;SDS011;11312;51.464;6.968;2022-07-18T00:21:23;0.85;;;0.85;;
22287;SDS011;11312;51.464;6.968;2022-07-18T00:23:49;3.15;;;1.55;;
22287;SDS011;11312;51.464;6.968;2022-07-18T00:26:15;1.65;;;0.98;;
22287;SDS011;11312;51.464;6.968;2022-07-18T00:28:41;2.08;;;1.25;;
22287;SDS011;11312;51.464;6.968;2022-07-18T00:31:07;0.85;;;0.80;;
22287;SDS011;11312;51.464;6.968;2022-07-18T00:33:32;4.32;;;1.75;;
22287;SDS011;11312;51.464;6.968;2022-07-18T00:35:58;1.30;;;1.10;;
22287;SDS011;11312;51.464;6.968;2022-07-18T00:38:24;0.80;;;0.80;;
22287;SDS011;11312;51.464;6.968;2022-07-18T00:40:49;0.82;;;0.82;;
22287;SDS011;11312;51.464;6.968;2022-07-18T00:43:15;1.02;;;0.90;;
22287;SDS011;11312;51.464;6.968;2022-07-18T00:45:48;2.22;;;1.25;;
22287;SDS011;11312;51.464;6.968;2022-07-18T00:48:14;1.38;;;1.05;;
22287;SDS011;11312;51.464;6.968;2022-07-18T00:50:41;0.80;;;0.80;;
22287;SDS011;11312;51.464;6.968;2022-07-18T00:53:07;1.75;;;1.08;;
22287;SDS011;11312;51.464;6.968;2022-07-18T00:55:37;2.17;;;1.50;;
22287;SDS011;11312;51.464;6.968;2022-07-18T00:58:03;1.20;;;0.93;;
22287;SDS011;11312;51.464;6.968;2022-07-18T01:00:29;0.90;;;0.90;;
22287;SDS011;11312;51.464;6.968;2022-07-18T01:03:13;1.20;;;1.00;;
22287;SDS011;11312;51.464;6.968;2022-07-18T01:05:39;1.60;;;1.08;;
22287;SDS011;11312;51.464;6.968;2022-07-18T01:08:05;1.33;;;0.90;;
22287;SDS011;11312;51.464;6.968;2022-07-18T01:10:30;1.40;;;1.08;;
22287;SDS011;11312;51.464;6.968;2022-07-18T01:12:56;0.80;;;0.80;;
22287;SDS011;11312;51.464;6.968;2022-07-18T01:15:22;1.17;;;1.08;;
22287;SDS011;11312;51.464;6.968;2022-07-18T01:17:48;0.90;;;0.90;;
22287;SDS011;11312;51.464;6.968;2022-07-18T01:20:14;0.80;;;0.80;;
22287;SDS011;11312;51.464;6.968;2022-07-18T01:22:40;2.03;;;1.05;;
22287;SDS011;11312;51.464;6.968;2022-07-18T01:25:07;0.95;;;0.90;;
22287;SDS011;11312;51.464;6.968;2022-07-18T01:27:34;1.98;;;1.25;;
22287;SDS011;11312;51.464;6.968;2022-07-18T01:30:00;0.95;;;0.90;;
22287;SDS011;11312;51.464;6.968;2022-07-18T01:32:26;0.80;;;0.80;;
22287;SDS011;11312;51.464;6.968;2022-07-18T01:34:52;1.25;;;1.00;;
22287;SDS011;11312;51.464;6.968;2022-07-18T01:37:17;1.50;;;1.10;;
22287;SDS011;11312;51.464;6.968;2022-07-18T01:39:44;1.95;;;1.33;;
22287;SDS011;11312;51.464;6.968;2022-07-18T01:42:11;1.88;;;1.25;;
22287;SDS011;11312;51.464;6.968;2022-07-18T01:44:37;1.33;;;1.20;;
22287;SDS011;11312;51.464;6.968;2022-07-18T01:47:05;1.33;;;1.05;;
22287;SDS011;11312;51.464;6.968;2022-07-18T01:49:32;1.08;;;0.98;;
22287;SDS011;11312;51.464;6.968;2022-07-18T01:51:59;0.90;;;0.90;;
22287;SDS011;11312;51.464;6.968;2022-07-18T01:54:26;0.90;;;0.90;;
22287;SDS011;11312;51.464;6.968;2022-07-18T01:56:53;1.15;;;1.05;;
22287;SDS011;11312;51.464;6.968;2022-07-18T01:59:19;2.22;;;1.33;;
22287;SDS011;11312;51.464;6.968;2022-07-18T02:01:45;0.95;;;0.90;;
22287;SDS011;11312;51.464;6.968;2022-07-18T02:04:11;1.85;;;1.10;;
22287;SDS011;11312;51.464;6.968;2022-07-18T02:06:37;3.58;;;1.80;;
22287;SDS011;11312;51.464;6.968;2022-07-18T02:09:03;2.83;;;1.35;;
22287;SDS011;11312;51.464;6.968;2022-07-18T02:11:30;1.40;;;1.10;;
22287;SDS011;11312;51.464;6.968;2022-07-18T02:13:55;2.97;;;1.38;;
22287;SDS011;11312;51.464;6.968;2022-07-18T02:16:21;2.08;;;1.30;;
22287;SDS011;11312;51.464;6.968;2022-07-18T02:18:47;1.00;;;0.90;;
22287;SDS011;11312;51.464;6.968;2022-07-18T02:21:12;1.45;;;1.00;;
22287;SDS011;11312;51.464;6.968;2022-07-18T02:23:41;1.63;;;1.10;;
22287;SDS011;11312;51.464;6.968;2022-07-18T02:26:08;1.10;;;1.00;;
22287;SDS011;11312;51.464;6.968;2022-07-18T02:28:34;1.17;;;1.00;;
22287;SDS011;11312;51.464;6.968;2022-07-18T02:31:00;1.55;;;1.00;;
22287;SDS011;11312;51.464;6.968;2022-07-18T02:33:25;0.95;;;0.95;;
22287;SDS011;11312;51.464;6.968;2022-07-18T02:35:51;1.65;;;1.10;;
22287;SDS011;11312;51.464;6.968;2022-07-18T02:38:17;1.05;;;0.98;;
22287;SDS011;11312;51.464;6.968;2022-07-18T02:40:42;1.33;;;1.00;;
22287;SDS011;11312;51.464;6.968;2022-07-18T02:43:08;1.27;;;1.10;;
22287;SDS011;11312;51.464;6.968;2022-07-18T02:45:34;1.95;;;1.33;;
22287;SDS011;11312;51.464;6.968;2022-07-18T02:47:59;1.17;;;1.00;;
22287;SDS011;11312;51.464;6.968;2022-07-18T02:50:25;1.10;;;0.90;;
22287;SDS011;11312;51.464;6.968;2022-07-18T02:52:51;1.75;;;1.10;;
22287;SDS011;11312;51.464;6.968;2022-07-18T02:55:17;1.55;;;1.02;;
22287;SDS011;11312;51.464;6.968;2022-07-18T02:57:42;1.83;;;1.20;;
22287;SDS011;11312;51.464;6.968;2022-07-18T03:00:09;0.90;;;0.90;;
22287;SDS011;11312;51.464;6.968;2022-07-18T03:02:37;1.10;;;1.00;;
22287;SDS011;11312;51.464;6.968;2022-07-18T03:05:03;1.27;;;1.10;;
22287;SDS011;11312;51.464;6.968;2022-07-18T03:07:30;3.97;;;1.70;;
22287;SDS011;11312;51.464;6.968;2022-07-18T03:09:56;2.35;;;1.30;;
22287;SDS011;11312;51.464;6.968;2022-07-18T03:12:21;1.00;;;0.98;;
22287;SDS011;11312;51.464;6.968;2022-07-18T03:14:47;1.48;;;1.10;;
22287;SDS011;11312;51.464;6.968;2022-07-18T03:17:13;1.00;;;1.00;;
22287;SDS011;11312;51.464;6.968;2022-07-18T03:19:39;3.72;;;1.85;;
22287;SDS011;11312;51.464;6.968;2022-07-18T03:22:04;1.35;;;1.10;;
22287;SDS011;11312;51.464;6.968;2022-07-18T03:24:30;1.58;;;1.15;;
22287;SDS011;11312;51.464;6.968;2022-07-18T03:26:56;3.15;;;1.20;;
22287;SDS011;11312;51.464;6.968;2022-07-18T03:29:22;3.55;;;1.55;;
22287;SDS011;11312;51.464;6.968;2022-07-18T03:31:48;1.10;;;1.00;;
22287;SDS011;11312;51.464;6.968;2022-07-18T03:34:14;1.10;;;1.00;;
22287;SDS011;11312;51.464;6.968;2022-07-18T03:36:40;1.27;;;1.00;;
22287;SDS011;11312;51.464;6.968;2022-07-18T03:39:06;1.27;;;1.08;;
22287;SDS011;11312;51.464;6.968;2022-07-18T03:41:32;1.00;;;1.00;;
22287;SDS011;11312;51.464;6.968;2022-07-18T03:43:57;2.05;;;1.23;;
22287;SDS011;11312;51.464;6.968;2022-07-18T03:46:23;2.28;;;1.33;;
22287;SDS011;11312;51.464;6.968;2022-07-18T03:48:49;2.60;;;1.30;;
22287;SDS011;11312;51.464;6.968;2022-07-18T03:51:15;1.45;;;1.15;;
22287;SDS011;11312;51.464;6.968;2022-07-18T03:53:40;1.33;;;1.10;;
22287;SDS011;11312;51.464;6.968;2022-07-18T03:56:06;6.15;;;1.60;;
22287;SDS011;11312;51.464;6.968;2022-07-18T03:58:32;1.42;;;1.10;;
22287;SDS011;11312;51.464;6.968;2022-07-18T04:00:58;1.45;;;1.00;;
22287;SDS011;11312;51.464;6.968;2022-07-18T04:03:23;1.00;;;0.98;;
22287;SDS011;11312;51.464;6.968;2022-07-18T04:05:49;2.50;;;1.30;;
22287;SDS011;11312;51.464;6.968;2022-07-18T04:08:15;1.20;;;1.10;;
22287;SDS011;11312;51.464;6.968;2022-07-18T04:10:41;1.20;;;1.10;;
22287;SDS011;11312;51.464;6.968;2022-07-18T04:13:08;2.22;;;1.70;;
22287;SDS011;11312;51.464;6.968;2022-07-18T04:15:34;1.25;;;1.05;;
22287;SDS011;11312;51.464;6.968;2022-07-18T04:18:00;1.45;;;1.10;;
22287;SDS011;11312;51.464;6.968;2022-07-18T04:20:26;2.88;;;1.35;;
22287;SDS011;11312;51.464;6.968;2022-07-18T04:22:53;1.25;;;1.05;;
22287;SDS011;11312;51.464;6.968;2022-07-18T04:25:23;1.10;;;1.00;;
22287;SDS011;11312;51.464;6.968;2022-07-18T04:27:50;1.08;;;0.95;;
22287;SDS011;11312;51.464;6.968;2022-07-18T04:30:18;1.83;;;1.20;;
22287;SDS011;11312;51.464;6.968;2022-07-18T04:32:45;2.75;;;1.60;;
22287;SDS011;11312;51.464;6.968;2022-07-18T04:35:10;1.10;;;1.00;;
22287;SDS011;11312;51.464;6.968;2022-07-18T04:37:37;1.58;;;1.30;;
22287;SDS011;11312;51.464;6.968;2022-07-18T04:40:03;1.48;;;1.13;;
22287;SDS011;11312;51.464;6.968;2022-07-18T04:42:30;2.20;;;1.45;;
22287;SDS011;11312;51.464;6.968;2022-07-18T04:44:56;1.10;;;1.00;;
22287;SDS011;11312;51.464;6.968;2022-07-18T04:47:22;1.73;;;1.20;;
22287;SDS011;11312;51.464;6.968;2022-07-18T04:49:48;1.38;;;1.13;;
22287;SDS011;11312;51.464;6.968;2022-07-18T04:52:14;2.10;;;1.35;;
22287;SDS011;11312;51.464;6.968;2022-07-18T04:54:39;2.00;;;1.23;;
22287;SDS011;11312;51.464;6.968;2022-07-18T04:57:05;1.10;;;1.00;;
22287;SDS011;11312;51.464;6.968;2022-07-18T04:59:30;2.13;;;1.27;;
22287;SDS011;11312;51.464;6.968;2022-07-18T05:01:56;1.85;;;1.10;;
22287;SDS011;11312;51.464;6.968;2022-07-18T05:04:22;2.58;;;1.48;;
22287;SDS011;11312;51.464;6.968;2022-07-18T05:06:48;0.98;;;0.93;;
22287;SDS011;11312;51.464;6.968;2022-07-18T05:09:13;5.50;;;1.55;;
22287;SDS011;11312;51.464;6.968;2022-07-18T05:11:39;2.30;;;1.27;;
22287;SDS011;11312;51.464;6.968;2022-07-18T05:14:05;1.33;;;1.08;;
22287;SDS011;11312;51.464;6.968;2022-07-18T05:16:30;1.17;;;1.00;;
22287;SDS011;11312;51.464;6.968;2022-07-18T05:18:56;0.95;;;0.95;;
22287;SDS011;11312;51.464;6.968;2022-07-18T05:21:21;2.05;;;1.25;;
22287;SDS011;11312;51.464;6.968;2022-07-18T05:23:47;1.20;;;1.10;;
22287;SDS011;11312;51.464;6.968;2022-07-18T05:26:13;1.35;;;1.08;;
22287;SDS011;11312;51.464;6.968;2022-07-18T05:28:38;2.50;;;1.20;;
22287;SDS011;11312;51.464;6.968;2022-07-18T05:31:04;1.27;;;1.00;;
22287;SDS011;11312;51.464;6.968;2022-07-18T05:33:30;3.50;;;1.60;;
22287;SDS011;11312;51.464;6.968;2022-07-18T05:35:55;2.05;;;1.23;;
22287;SDS011;11312;51.464;6.968;2022-07-18T05:38:21;1.02;;;0.90;;
22287;SDS011;11312;51.464;6.968;2022-07-18T05:40:47;1.67;;;1.20;;
22287;SDS011;11312;51.464;6.968;2022-07-18T05:43:12;1.67;;;1.10;;
22287;SDS011;11312;51.464;6.968;2022-07-18T05:45:38;2.35;;;1.42;;
22287;SDS011;11312;51.464;6.968;2022-07-18T05:48:04;2.83;;;1.55;;
22287;SDS011;11312;51.464;6.968;2022-07-18T05:50:30;0.80;;;0.80;;
22287;SDS011;11312;51.464;6.968;2022-07-18T05:52:56;1.95;;;1.05;;
22287;SDS011;11312;51.464;6.968;2022-07-18T05:55:21;2.10;;;1.45;;
22287;SDS011;11312;51.464;6.968;2022-07-18T05:57:47;0.85;;;0.80;;
22287;SDS011;11312;51.464;6.968;2022-07-18T06:00:15;0.77;;;0.77;;
22287;SDS011;11312;51.464;6.968;2022-07-18T06:02:41;1.42;;;1.00;;
22287;SDS011;11312;51.464;6.968;2022-07-18T06:05:07;0.95;;;0.88;;
22287;SDS011;11312;51.464;6.968;2022-07-18T06:07:34;0.73;;;0.73;;
22287;SDS011;11312;51.464;6.968;2022-07-18T06:10:00;1.65;;;1.08;;
22287;SDS011;11312;51.464;6.968;2022-07-18T06:12:27;1.58;;;0.95;;
22287;SDS011;11312;51.464;6.968;2022-07-18T06:31:54;1.10;;;0.82;;
22287;SDS011;11312;51.464;6.968;2022-07-18T06:36:45;1.10;;;0.82;;
22287;SDS011;11312;51.464;6.968;2022-07-18T06:39:11;1.25;;;1.00;;
22287;SDS011;11312;51.464;6.968;2022-07-18T06:41:37;2.65;;;0.93;;
22287;SDS011;11312;51.464;6.968;2022-07-18T06:44:04;2.20;;;0.90;;
22287;SDS011;11312;51.464;6.968;2022-07-18T06:46:30;3.10;;;1.30;;
22287;SDS011;11312;51.464;6.968;2022-07-18T06:48:56;1.63;;;1.02;;
22287;SDS011;11312;51.464;6.968;2022-07-18T06:51:21;1.27;;;0.85;;
22287;SDS011;11312;51.464;6.968;2022-07-18T06:53:47;3.20;;;1.20;;
22287;SDS011;11312;51.464;6.968;2022-07-18T06:56:12;0.95;;;0.70;;
22287;SDS011;11312;51.464;6.968;2022-07-18T06:58:38;0.60;;;0.60;;
22287;SDS011;11312;51.464;6.968;2022-07-18T07:01:04;2.85;;;0.93;;
22287;SDS011;11312;51.464;6.968;2022-07-18T07:03:31;0.90;;;0.63;;
22287;SDS011;11312;51.464;6.968;2022-07-18T07:05:57;0.60;;;0.60;;
22287;SDS011;11312;51.464;6.968;2022-07-18T07:08:23;1.45;;;0.80;;
22287;SDS011;11312;51.464;6.968;2022-07-18T07:10:48;0.73;;;0.60;;
22287;SDS011;11312;51.464;6.968;2022-07-18T07:13:14;0.30;;;0.30;;
22287;SDS011;11312;51.464;6.968;2022-07-18T07:15:40;0.85;;;0.63;;
22287;SDS011;11312;51.464;6.968;2022-07-18T07:18:07;1.90;;;1.48;;
22287;SDS011;11312;51.464;6.968;2022-07-18T07:20:33;0.40;;;0.40;;
22287;SDS011;11312;51.464;6.968;2022-07-18T07:22:59;5.15;;;1.33;;
22287;SDS011;11312;51.464;6.968;2022-07-18T07:25:29;3.40;;;0.63;;
22287;SDS011;11312;51.464;6.968;2022-07-18T07:27:55;0.30;;;0.30;;
22287;SDS011;11312;51.464;6.968;2022-07-18T07:30:21;0.50;;;0.40;;
22287;SDS011;11312;51.464;6.968;2022-07-18T07:32:47;1.25;;;0.80;;
22287;SDS011;11312;51.464;6.968;2022-07-18T07:35:14;1.63;;;0.73;;
22287;SDS011;11312;51.464;6.968;2022-07-18T07:37:58;0.90;;;0.45;;
22287;SDS011;11312;51.464;6.968;2022-07-18T07:40:25;3.60;;;0.95;;
22287;SDS011;11312;51.464;6.968;2022-07-18T07:42:55;0.40;;;0.40;;
22287;SDS011;11312;51.464;6.968;2022-07-18T07:45:33;0.73;;;0.40;;
22287;SDS011;11312;51.464;6.968;2022-07-18T07:47:59;2.67;;;1.25;;
22287;SDS011;11312;51.464;6.968;2022-07-18T07:50:25;0.80;;;0.68;;
22287;SDS011;11312;51.464;6.968;2022-07-18T07:52:50;0.20;;;0.20;;
22287;SDS011;11312;51.464;6.968;2022-07-18T07:55:16;1.48;;;0.50;;
22287;SDS011;11312;51.464;6.968;2022-07-18T07:57:42;0.25;;;0.25;;
22287;SDS011;11312;51.464;6.968;2022-07-18T08:00:08;0.80;;;0.43;;
22287;SDS011;11312;51.464;6.968;2022-07-18T08:02:35;0.40;;;0.40;;
22287;SDS011;11312;51.464;6.968;2022-07-18T08:05:01;0.30;;;0.30;;
22287;SDS011;11312;51.464;6.968;2022-07-18T08:07:27;0.10;;;0.10;;
22287;SDS011;11312;51.464;6.968;2022-07-18T08:09:53;0.20;;;0.20;;
22287;SDS011;11312;51.464;6.968;2022-07-18T08:12:19;0.32;;;0.30;;
22287;SDS011;11312;51.464;6.968;2022-07-18T08:14:44;1.55;;;1.13;;
22287;SDS011;11312;51.464;6.968;2022-07-18T08:17:10;0.13;;;0.13;;
22287;SDS011;11312;51.464;6.968;2022-07-18T08:19:35;0.80;;;0.47;;
22287;SDS011;11312;51.464;6.968;2022-07-18T08:22:01;0.43;;;0.30;;
22287;SDS011;11312;51.464;6.968;2022-07-18T08:24:27;1.02;;;0.40;;
22287;SDS011;11312;51.464;6.968;2022-07-18T08:26:52;0.32;;;0.22;;
22287;SDS011;11312;51.464;6.968;2022-07-18T08:29:18;0.10;;;0.10;;
22287;SDS011;11312;51.464;6.968;2022-07-18T08:31:43;1.08;;;0.65;;
22287;SDS011;11312;51.464;6.968;2022-07-18T08:34:09;0.28;;;0.22;;
22287;SDS011;11312;51.464;6.968;2022-07-18T08:36:35;0.20;;;0.20;;
22287;SDS011;11312;51.464;6.968;2022-07-18T08:39:00;0.20;;;0.20;;
22287;SDS011;11312;51.464;6.968;2022-07-18T08:41:26;1.67;;;0.82;;
22287;SDS011;11312;51.464;6.968;2022-07-18T08:43:53;1.00;;;0.57;;
22287;SDS011;11312;51.464;6.968;2022-07-18T08:46:20;0.60;;;0.22;;
22287;SDS011;11312;51.464;6.968;2022-07-18T08:48:46;0.20;;;0.10;;
22287;SDS011;11312;51.464;6.968;2022-07-18T08:51:13;0.28;;;0.20;;
22287;SDS011;11312;51.464;6.968;2022-07-18T08:53:40;0.73;;;0.32;;
22287;SDS011;11312;51.464;6.968;2022-07-18T08:56:05;0.20;;;0.20;;
22287;SDS011;11312;51.464;6.968;2022-07-18T08:58:31;1.65;;;0.65;;
22287;SDS011;11312;51.464;6.968;2022-07-18T09:00:57;0.00;;;0.00;;
22287;SDS011;11312;51.464;6.968;2022-07-18T09:03:23;1.85;;;0.43;;
22287;SDS011;11312;51.464;6.968;2022-07-18T09:06:03;0.00;;;0.00;;
22287;SDS011;11312;51.464;6.968;2022-07-18T09:08:32;0.63;;;0.20;;
22287;SDS011;11312;51.464;6.968;2022-07-18T09:11:00;0.55;;;0.20;;
22287;SDS011;11312;51.464;6.968;2022-07-18T09:16:03;0.10;;;0.10;;
22287;SDS011;11312;51.464;6.968;2022-07-18T09:18:40;0.45;;;0.17;;
22287;SDS011;11312;51.464;6.968;2022-07-18T09:23:38;0.10;;;0.10;;
22287;SDS011;11312;51.464;6.968;2022-07-18T09:26:09;2.00;;;0.65;;
22287;SDS011;11312;51.464;6.968;2022-07-18T09:28:45;1.45;;;0.47;;
22287;SDS011;11312;51.464;6.968;2022-07-18T09:31:19;0.00;;;0.00;;
22287;SDS011;11312;51.464;6.968;2022-07-18T09:33:54;2.55;;;1.17;;
22287;SDS011;11312;51.464;6.968;2022-07-18T09:36:24;0.00;;;0.00;;
22287;SDS011;11312;51.464;6.968;2022-07-18T09:38:50;11.60;;;0.85;;
22287;SDS011;11312;51.464;6.968;2022-07-18T09:41:21;0.15;;;0.15;;
22287;SDS011;11312;51.464;6.968;2022-07-18T09:58:37;0.30;;;0.13;;
22287;SDS011;11312;51.464;6.968;2022-07-18T10:01:06;2.35;;;0.90;;
22287;SDS011;11312;51.464;6.968;2022-07-18T10:03:34;0.05;;;0.05;;
22287;SDS011;11312;51.464;6.968;2022-07-18T10:06:00;0.55;;;0.17;;
22287;SDS011;11312;51.464;6.968;2022-07-18T10:08:28;0.70;;;0.28;;
22287;SDS011;11312;51.464;6.968;2022-07-18T10:20:48;0.38;;;0.13;;
22287;SDS011;11312;51.464;6.968;2022-07-18T10:23:25;0.98;;;0.30;;
22287;SDS011;11312;51.464;6.968;2022-07-18T10:43:53;0.00;;;0.00;;
22287;SDS011;11312;51.464;6.968;2022-07-18T10:46:18;0.28;;;0.15;;
22287;SDS011;11312;51.464;6.968;2022-07-18T10:48:52;0.10;;;0.10;;
22287;SDS011;11312;51.464;6.968;2022-07-18T10:51:18;0.00;;;0.00;;
22287;SDS011;11312;51.464;6.968;2022-07-18T10:53:55;0.55;;;0.17;;
22287;SDS011;11312;51.464;6.968;2022-07-18T10:59:20;0.22;;;0.03;;
22287;SDS011;11312;51.464;6.968;2022-07-18T11:01:52;0.00;;;0.00;;
22287;SDS011;11312;51.464;6.968;2022-07-18T11:04:23;2.92;;;0.45;;
22287;SDS011;11312;51.464;6.968;2022-07-18T11:07:13;0.10;;;0.05;;
22287;SDS011;11312;51.464;6.968;2022-07-18T11:09:41;2.00;;;0.63;;
22287;SDS011;11312;51.464;6.968;2022-07-18T11:15:00;0.00;;;0.00;;
22287;SDS011;11312;51.464;6.968;2022-07-18T11:39:52;0.45;;;0.17;;
22287;SDS011;11312;51.464;6.968;2022-07-18T11:42:17;1.55;;;0.35;;
22287;SDS011;11312;51.464;6.968;2022-07-18T11:44:58;0.60;;;0.15;;
22287;SDS011;11312;51.464;6.968;2022-07-18T11:47:25;0.98;;;0.30;;
22287;SDS011;11312;51.464;6.968;2022-07-18T11:49:54;0.20;;;0.10;;
22287;SDS011;11312;51.464;6.968;2022-07-18T11:52:21;0.15;;;0.00;;
22287;SDS011;11312;51.464;6.968;2022-07-18T11:54:46;0.00;;;0.00;;
22287;SDS011;11312;51.464;6.968;2022-07-18T11:57:12;0.90;;;0.28;;
22287;SDS011;11312;51.464;6.968;2022-07-18T11:59:41;0.75;;;0.32;;
22287;SDS011;11312;51.464;6.968;2022-07-18T12:02:10;0.88;;;0.20;;
22287;SDS011;11312;51.464;6.968;2022-07-18T12:04:36;1.02;;;0.45;;
22287;SDS011;11312;51.464;6.968;2022-07-18T12:07:18;2.45;;;0.30;;
22287;SDS011;11312;51.464;6.968;2022-07-18T12:09:46;0.08;;;0.03;;
22287;SDS011;11312;51.464;6.968;2022-07-18T12:12:14;0.00;;;0.00;;
22287;SDS011;11312;51.464;6.968;2022-07-18T12:14:40;0.85;;;0.25;;
22287;SDS011;11312;51.464;6.968;2022-07-18T12:17:06;0.20;;;0.10;;
22287;SDS011;11312;51.464;6.968;2022-07-18T12:19:34;0.82;;;0.28;;
22287;SDS011;11312;51.464;6.968;2022-07-18T12:22:10;0.95;;;0.22;;
22287;SDS011;11312;51.464;6.968;2022-07-18T12:27:18;0.25;;;0.13;;
22287;SDS011;11312;51.464;6.968;2022-07-18T12:35:28;1.50;;;0.38;;
22287;SDS011;11312;51.464;6.968;2022-07-18T12:38:04;0.65;;;0.17;;
22287;SDS011;11312;51.464;6.968;2022-07-18T12:43:06;0.35;;;0.10;;
22287;SDS011;11312;51.464;6.968;2022-07-18T12:45:34;1.33;;;0.38;;
22287;SDS011;11312;51.464;6.968;2022-07-18T12:48:01;0.82;;;0.30;;
22287;SDS011;11312;51.464;6.968;2022-07-18T12:50:27;0.00;;;0.00;;
22287;SDS011;11312;51.464;6.968;2022-07-18T12:52:53;1.02;;;0.38;;
22287;SDS011;11312;51.464;6.968;2022-07-18T12:55:19;0.25;;;0.15;;
22287;SDS011;11312;51.464;6.968;2022-07-18T12:57:44;0.15;;;0.13;;
22287;SDS011;11312;51.464;6.968;2022-07-18T13:00:11;0.10;;;0.10;;
22287;SDS011;11312;51.464;6.968;2022-07-18T13:02:37;1.52;;;0.60;;
22287;SDS011;11312;51.464;6.968;2022-07-18T13:05:02;0.65;;;0.10;;
22287;SDS011;11312;51.464;6.968;2022-07-18T13:07:28;0.10;;;0.03;;
22287;SDS011;11312;51.464;6.968;2022-07-18T13:09:54;0.00;;;0.00;;
22287;SDS011;11312;51.464;6.968;2022-07-18T13:12:22;0.00;;;0.00;;
22287;SDS011;11312;51.464;6.968;2022-07-18T13:14:47;1.55;;;0.45;;
22287;SDS011;11312;51.464;6.968;2022-07-18T13:17:13;0.00;;;0.00;;
22287;SDS011;11312;51.464;6.968;2022-07-18T13:19:39;0.00;;;0.00;;
22287;SDS011;11312;51.464;6.968;2022-07-18T13:22:05;0.40;;;0.20;;
22287;SDS011;11312;51.464;6.968;2022-07-18T13:24:31;0.28;;;0.10;;
22287;SDS011;11312;51.464;6.968;2022-07-18T13:26:56;2.58;;;0.57;;
22287;SDS011;11312;51.464;6.968;2022-07-18T13:29:22;1.75;;;0.60;;
22287;SDS011;11312;51.464;6.968;2022-07-18T13:31:48;0.55;;;0.22;;
22287;SDS011;11312;51.464;6.968;2022-07-18T13:34:18;2.40;;;0.50;;
22287;SDS011;11312;51.464;6.968;2022-07-18T13:36:45;0.00;;;0.00;;
22287;SDS011;11312;51.464;6.968;2022-07-18T13:39:12;0.80;;;0.25;;
22287;SDS011;11312;51.464;6.968;2022-07-18T13:41:37;0.00;;;0.00;;
22287;SDS011;11312;51.464;6.968;2022-07-18T13:44:03;0.63;;;0.25;;
22287;SDS011;11312;51.464;6.968;2022-07-18T13:46:29;0.40;;;0.20;;
22287;SDS011;11312;51.464;6.968;2022-07-18T13:48:54;1.77;;;0.55;;
22287;SDS011;11312;51.464;6.968;2022-07-18T13:51:20;1.00;;;0.50;;
22287;SDS011;11312;51.464;6.968;2022-07-18T13:53:47;0.17;;;0.10;;
22287;SDS011;11312;51.464;6.968;2022-07-18T13:56:12;0.28;;;0.10;;
22287;SDS011;11312;51.464;6.968;2022-07-18T13:58:38;0.28;;;0.08;;
22287;SDS011;11312;51.464;6.968;2022-07-18T14:01:04;0.75;;;0.17;;
22287;SDS011;11312;51.464;6.968;2022-07-18T14:03:30;0.50;;;0.15;;
22287;SDS011;11312;51.464;6.968;2022-07-18T14:05:56;0.10;;;0.10;;
22287;SDS011;11312;51.464;6.968;2022-07-18T14:08:21;0.63;;;0.20;;
22287;SDS011;11312;51.464;6.968;2022-07-18T14:10:47;1.27;;;0.30;;
22287;SDS011;11312;51.464;6.968;2022-07-18T14:13:13;2.65;;;0.85;;
22287;SDS011;11312;51.464;6.968;2022-07-18T14:15:38;0.00;;;0.00;;
22287;SDS011;11312;51.464;6.968;2022-07-18T14:18:04;0.13;;;0.03;;
22287;SDS011;11312;51.464;6.968;2022-07-18T14:20:30;0.30;;;0.10;;
22287;SDS011;11312;51.464;6.968;2022-07-18T14:22:56;0.43;;;0.30;;
22287;SDS011;11312;51.464;6.968;2022-07-18T14:25:22;0.10;;;0.10;;
22287;SDS011;11312;51.464;6.968;2022-07-18T14:27:47;0.80;;;0.30;;
22287;SDS011;11312;51.464;6.968;2022-07-18T14:30:14;1.38;;;0.50;;
22287;SDS011;11312;51.464;6.968;2022-07-18T14:32:40;0.00;;;0.00;;
22287;SDS011;11312;51.464;6.968;2022-07-18T14:35:06;6.38;;;1.08;;
22287;SDS011;11312;51.464;6.968;2022-07-18T14:37:33;1.55;;;0.43;;
22287;SDS011;11312;51.464;6.968;2022-07-18T14:39:59;2.28;;;0.55;;
22287;SDS011;11312;51.464;6.968;2022-07-18T14:42:25;1.95;;;0.75;;
22287;SDS011;11312;51.464;6.968;2022-07-18T14:44:51;1.08;;;0.43;;
22287;SDS011;11312;51.464;6.968;2022-07-18T14:47:17;0.73;;;0.22;;
22287;SDS011;11312;51.464;6.968;2022-07-18T14:49:43;0.73;;;0.17;;
22287;SDS011;11312;51.464;6.968;2022-07-18T14:52:09;2.63;;;0.80;;
22287;SDS011;11312;51.464;6.968;2022-07-18T14:54:34;1.30;;;0.52;;
22287;SDS011;11312;51.464;6.968;2022-07-18T14:57:00;0.00;;;0.00;;
22287;SDS011;11312;51.464;6.968;2022-07-18T14:59:28;0.93;;;0.30;;
22287;SDS011;11312;51.464;6.968;2022-07-18T15:01:54;0.17;;;0.10;;
22287;SDS011;11312;51.464;6.968;2022-07-18T15:04:20;1.52;;;0.63;;
22287;SDS011;11312;51.464;6.968;2022-07-18T15:06:46;0.65;;;0.20;;
22287;SDS011;11312;51.464;6.968;2022-07-18T15:09:12;0.00;;;0.00;;
22287;SDS011;11312;51.464;6.968;2022-07-18T15:11:39;0.80;;;0.20;;
22287;SDS011;11312;51.464;6.968;2022-07-18T15:14:05;1.35;;;0.40;;
22287;SDS011;11312;51.464;6.968;2022-07-18T15:16:31;0.08;;;0.08;;
22287;SDS011;11312;51.464;6.968;2022-07-18T15:18:56;0.35;;;0.20;;
22287;SDS011;11312;51.464;6.968;2022-07-18T15:21:22;0.63;;;0.13;;
22287;SDS011;11312;51.464;6.968;2022-07-18T15:23:48;0.85;;;0.38;;
22287;SDS011;11312;51.464;6.968;2022-07-18T15:26:13;0.20;;;0.13;;
22287;SDS011;11312;51.464;6.968;2022-07-18T15:28:39;0.55;;;0.20;;
22287;SDS011;11312;51.464;6.968;2022-07-18T15:31:05;0.08;;;0.08;;
22287;SDS011;11312;51.464;6.968;2022-07-18T15:33:32;0.10;;;0.10;;
22287;SDS011;11312;51.464;6.968;2022-07-18T15:35:58;0.17;;;0.13;;
22287;SDS011;11312;51.464;6.968;2022-07-18T15:38:24;0.40;;;0.25;;
22287;SDS011;11312;51.464;6.968;2022-07-18T15:40:50;0.00;;;0.00;;
22287;SDS011;11312;51.464;6.968;2022-07-18T15:43:15;0.20;;;0.20;;
22287;SDS011;11312;51.464;6.968;2022-07-18T15:45:42;9.45;;;1.38;;
22287;SDS011;11312;51.464;6.968;2022-07-18T15:48:08;0.10;;;0.10;;
22287;SDS011;11312;51.464;6.968;2022-07-18T15:50:34;1.38;;;0.60;;
22287;SDS011;11312;51.464;6.968;2022-07-18T15:52:59;0.70;;;0.28;;
22287;SDS011;11312;51.464;6.968;2022-07-18T15:55:25;1.73;;;0.60;;
22287;SDS011;11312;51.464;6.968;2022-07-18T15:57:51;0.75;;;0.32;;
22287;SDS011;11312;51.464;6.968;2022-07-18T16:00:17;0.55;;;0.13;;
22287;SDS011;11312;51.464;6.968;2022-07-18T16:02:43;0.25;;;0.03;;
22287;SDS011;11312;51.464;6.968;2022-07-18T16:05:09;1.23;;;0.50;;
22287;SDS011;11312;51.464;6.968;2022-07-18T16:07:35;0.75;;;0.20;;
22287;SDS011;11312;51.464;6.968;2022-07-18T16:10:00;0.05;;;0.05;;
22287;SDS011;11312;51.464;6.968;2022-07-18T16:12:26;0.45;;;0.32;;
22287;SDS011;11312;51.464;6.968;2022-07-18T16:14:52;0.60;;;0.20;;
22287;SDS011;11312;51.464;6.968;2022-07-18T16:17:18;0.10;;;0.10;;
22287;SDS011;11312;51.464;6.968;2022-07-18T16:19:44;1.00;;;0.50;;
22287;SDS011;11312;51.464;6.968;2022-07-18T16:22:10;0.00;;;0.00;;
22287;SDS011;11312;51.464;6.968;2022-07-18T16:24:36;1.10;;;0.55;;
22287;SDS011;11312;51.464;6.968;2022-07-18T16:27:02;1.65;;;0.52;;
22287;SDS011;11312;51.464;6.968;2022-07-18T16:29:27;0.30;;;0.30;;
22287;SDS011;11312;51.464;6.968;2022-07-18T16:31:53;1.33;;;0.43;;